createdAt,value
2022-12-22T00:02:07.058Z,97415.44
2022-12-22T00:05:57.600Z,97416.09
2022-12-22T00:09:41.321Z,97414.25
2022-12-22T00:13:45.289Z,97398.28
2022-12-22T00:17:49.919Z,97384.22
2022-12-22T00:21:50.965Z,97387.97
2022-12-22T00:25:52.445Z,97372.78
2022-12-22T00:29:36.531Z,97377.34
2022-12-22T00:33:39.207Z,97370.56
2022-12-22T00:37:37.146Z,97367.25
2022-12-22T00:41:39.407Z,97366.34
2022-12-22T00:45:20.504Z,97366.06
2022-12-22T00:49:20.589Z,97355.88
2022-12-22T00:53:08.411Z,97354.59
2022-12-22T00:56:55.849Z,97342.31
2022-12-22T01:00:52.025Z,97332.09
2022-12-22T01:04:39.514Z,97339.72
2022-12-22T01:08:42.071Z,97326.38
2022-12-22T01:13:01.341Z,97323.44
2022-12-22T01:17:13.867Z,97324.25
2022-12-22T01:21:10.819Z,97324.06
2022-12-22T01:24:55.890Z,97317.78
2022-12-22T01:28:43.637Z,97303.41
2022-12-22T01:32:25.022Z,97313.41
2022-12-22T01:36:11.489Z,97319.97
2022-12-22T01:39:54.693Z,97308.19
2022-12-22T01:43:44.915Z,97305.75
2022-12-22T01:47:52.480Z,97308.97
2022-12-22T01:51:50.531Z,97309.91
2022-12-22T01:55:47.817Z,97316.50
2022-12-22T01:59:49.815Z,97290.13
2022-12-22T02:03:41.931Z,97277.78
2022-12-22T02:08:13.083Z,97275.09
2022-12-22T02:12:44.229Z,97273.78
2022-12-22T02:17:10.487Z,97270.28
2022-12-22T02:21:02.736Z,97268.44
2022-12-22T02:25:12.590Z,97250.28
2022-12-22T02:29:02.232Z,97255.06
2022-12-22T02:32:46.004Z,97229.41
2022-12-22T02:37:19.100Z,97230.44
2022-12-22T02:41:39.029Z,97230.94
2022-12-22T02:46:08.860Z,97219.31
2022-12-22T02:50:21.771Z,97213.31
2022-12-22T02:54:03.657Z,97201.88
2022-12-22T02:57:45.355Z,97212.03
2022-12-22T03:01:31.037Z,97206.16
2022-12-22T03:05:24.145Z,97207.38
2022-12-22T03:09:20.133Z,97201.78
2022-12-22T03:13:12.785Z,97192.84
2022-12-22T03:16:55.201Z,97183.09
2022-12-22T03:20:39.347Z,97186.44
2022-12-22T03:24:24.224Z,97184.09
2022-12-22T03:28:19.658Z,97169.88
2022-12-22T03:31:46.461Z,97174.25
2022-12-22T03:35:11.095Z,97164.34
2022-12-22T03:39:12.968Z,97168.34
2022-12-22T03:42:53.741Z,97163.56
2022-12-22T03:46:30.660Z,97168.59
2022-12-22T03:49:53.753Z,97171.41
2022-12-22T03:53:18.765Z,97162.63
2022-12-22T03:56:43.118Z,97163.31
2022-12-22T04:00:07.277Z,97168.25
2022-12-22T04:03:34.993Z,97158.38
2022-12-22T04:06:57.857Z,97165.94
2022-12-22T04:10:39.092Z,97150.69
2022-12-22T04:14:01.916Z,97152.69
2022-12-22T04:17:23.780Z,97163.00
2022-12-22T04:20:46.702Z,97165.97
2022-12-22T04:24:09.413Z,97162.84
2022-12-22T04:27:38.916Z,97157.63
2022-12-22T04:31:00.875Z,97159.59
2022-12-22T04:34:22.829Z,97154.22
2022-12-22T04:37:47.667Z,97167.75
2022-12-22T04:41:12.860Z,97158.47
2022-12-22T04:44:34.678Z,97162.94
2022-12-22T04:47:56.756Z,97153.31
2022-12-22T04:51:28.640Z,97165.59
2022-12-22T04:54:50.640Z,97161.22
2022-12-22T04:58:18.828Z,97159.47
2022-12-22T05:01:40.869Z,97176.41
2022-12-22T05:05:10.075Z,97157.88
2022-12-22T05:08:32.118Z,97165.03
2022-12-22T05:11:56.027Z,97184.59
2022-12-22T05:15:18.070Z,97182.84
2022-12-22T05:18:44.576Z,97180.06
2022-12-22T05:22:06.397Z,97181.31
2022-12-22T05:25:35.051Z,97172.81
2022-12-22T05:28:57.566Z,97174.06
2022-12-22T05:32:20.468Z,97170.84
2022-12-22T05:35:43.406Z,97179.78
2022-12-22T05:39:07.422Z,97166.66
2022-12-22T05:42:36.220Z,97178.25
2022-12-22T05:46:01.838Z,97184.59
2022-12-22T05:49:23.972Z,97173.13
2022-12-22T05:52:46.269Z,97178.88
2022-12-22T05:56:08.941Z,97174.88
2022-12-22T05:59:32.757Z,97165.84
2022-12-22T06:03:00.718Z,97172.66
2022-12-22T06:06:31.658Z,97168.47
2022-12-22T06:09:54.719Z,97171.00
2022-12-22T06:13:18.535Z,97169.63
2022-12-22T06:16:40.487Z,97174.47
2022-12-22T06:20:02.601Z,97172.28
2022-12-22T06:23:30.366Z,97172.56
2022-12-22T06:26:58.215Z,97165.28
2022-12-22T06:30:33.334Z,97186.91
2022-12-22T06:33:55.795Z,97168.44
2022-12-22T06:37:17.767Z,97181.28
2022-12-22T06:40:40.618Z,97184.88
2022-12-22T06:44:04.955Z,97194.81
2022-12-22T06:47:26.966Z,97179.47
2022-12-22T06:50:50.109Z,97192.84
2022-12-22T06:54:13.075Z,97186.97
2022-12-22T06:57:34.864Z,97192.25
2022-12-22T07:00:58.746Z,97180.72
2022-12-22T07:04:24.704Z,97179.91
2022-12-22T07:07:46.628Z,97184.13
2022-12-22T07:11:15.660Z,97184.63
2022-12-22T07:14:37.477Z,97175.41
2022-12-22T07:18:06.300Z,97184.97
2022-12-22T07:21:28.184Z,97192.16
2022-12-22T07:24:55.102Z,97186.97
2022-12-22T07:28:21.057Z,97210.44
2022-12-22T07:31:43.448Z,97205.47
2022-12-22T07:35:06.176Z,97214.25
2022-12-22T07:38:34.457Z,97205.97
2022-12-22T07:42:20.684Z,97213.38
2022-12-22T07:45:42.645Z,97215.00
2022-12-22T07:49:24.906Z,97229.13
2022-12-22T07:52:47.811Z,97220.34
2022-12-22T07:56:09.622Z,97216.72
2022-12-22T07:59:31.709Z,97244.72
2022-12-22T08:02:57.384Z,97248.66
2022-12-22T08:06:19.559Z,97247.34
2022-12-22T08:09:42.443Z,97271.69
2022-12-22T08:13:04.309Z,97270.31
2022-12-22T08:16:30.051Z,97270.88
2022-12-22T08:19:52.016Z,97281.72
2022-12-22T08:23:17.386Z,97288.91
2022-12-22T08:26:46.219Z,97301.84
2022-12-22T08:30:10.020Z,97324.09
2022-12-22T08:33:33.087Z,97348.22
2022-12-22T08:36:59.779Z,97355.91
2022-12-22T08:40:27.385Z,97362.78
2022-12-22T08:43:51.224Z,97372.69
2022-12-22T08:47:17.332Z,97377.06
2022-12-22T08:50:39.503Z,97399.19
2022-12-22T08:54:04.833Z,97416.31
2022-12-22T08:57:27.106Z,97414.63
2022-12-22T09:00:55.196Z,97426.13
2022-12-22T09:04:21.607Z,97456.59
2022-12-22T09:07:47.067Z,97449.31
2022-12-22T09:11:09.039Z,97463.09
2022-12-22T09:14:32.734Z,97474.28
2022-12-22T09:17:54.631Z,97484.09
2022-12-22T09:21:18.561Z,97484.84
2022-12-22T09:24:40.539Z,97498.81
2022-12-22T09:28:07.763Z,97488.84
2022-12-22T09:31:31.881Z,97521.03
2022-12-22T09:34:53.748Z,97519.22
2022-12-22T09:38:15.583Z,97526.13
2022-12-22T09:41:53.848Z,97532.63
2022-12-22T09:45:20.089Z,97576.94
2022-12-22T09:48:42.166Z,97557.56
2022-12-22T09:52:28.118Z,97571.63
2022-12-22T09:55:51.998Z,97573.97
2022-12-22T09:59:20.853Z,97574.88
2022-12-22T10:03:19.380Z,97577.59
2022-12-22T10:07:02.094Z,97589.59
2022-12-22T10:10:30.071Z,97592.63
2022-12-22T10:13:52.041Z,97585.16
2022-12-22T10:17:31.473Z,97599.94
2022-12-22T10:21:10.154Z,97609.41
2022-12-22T10:24:36.033Z,97599.91
2022-12-22T10:28:03.126Z,97599.06
2022-12-22T10:31:32.424Z,97626.78
2022-12-22T10:35:07.165Z,97632.56
2022-12-22T10:38:37.267Z,97640.50
2022-12-22T10:42:14.654Z,97639.50
2022-12-22T10:45:37.150Z,97640.06
2022-12-22T10:52:59.029Z,97648.94
2022-12-22T10:56:27.703Z,97667.94
2022-12-22T10:59:56.640Z,97646.28
2022-12-22T11:03:30.994Z,97659.19
2022-12-22T11:06:58.669Z,97671.81
2022-12-22T11:10:41.322Z,97668.22
2022-12-22T11:14:43.998Z,97688.59
2022-12-22T11:18:45.736Z,97689.66
2022-12-22T11:22:41.229Z,97694.53
2022-12-22T11:26:38.407Z,97697.44
2022-12-22T11:30:20.396Z,97698.03
2022-12-22T11:34:08.975Z,97694.81
2022-12-22T11:38:09.690Z,97702.91
2022-12-22T11:41:49.973Z,97702.16
2022-12-22T11:45:51.536Z,97701.38
2022-12-22T11:49:43.108Z,97699.63
2022-12-22T11:53:41.251Z,97698.84
2022-12-22T11:57:22.624Z,97698.09
2022-12-22T12:01:29.264Z,97694.13
2022-12-22T12:05:43.024Z,97693.41
2022-12-22T12:09:31.332Z,97693.19
2022-12-22T12:13:10.545Z,97707.31
2022-12-22T12:17:31.445Z,97711.47
2022-12-22T12:21:49.800Z,97700.47
2022-12-22T12:25:36.754Z,97697.44
2022-12-22T12:29:16.863Z,97696.03
2022-12-22T12:33:07.280Z,97692.47
2022-12-22T12:37:03.532Z,97692.16
2022-12-22T12:40:50.635Z,97694.13
2022-12-22T12:44:18.188Z,97706.16
2022-12-22T12:47:40.056Z,97695.25
2022-12-22T12:51:57.971Z,97699.03
2022-12-22T12:55:40.497Z,97681.31
2022-12-22T12:59:02.420Z,97676.34
2022-12-22T13:02:27.463Z,97668.78
2022-12-22T13:05:57.930Z,97660.75
2022-12-22T13:09:50.344Z,97660.72
2022-12-22T13:13:26.898Z,97671.94
2022-12-22T13:16:48.978Z,97664.13
2022-12-22T13:20:20.874Z,97666.72
2022-12-22T13:24:14.981Z,97661.38
2022-12-22T13:27:33.271Z,97674.88
2022-12-22T13:31:12.636Z,97677.00
2022-12-22T13:35:35.634Z,97680.88
2022-12-22T13:39:14.427Z,97672.28
2022-12-22T13:42:45.958Z,97666.91
2022-12-22T13:46:09.570Z,97661.44
2022-12-22T13:50:07.348Z,97669.19
2022-12-22T13:53:58.678Z,97676.66
2022-12-22T13:57:20.410Z,97676.97
2022-12-22T14:00:42.414Z,97663.06
2022-12-22T14:04:07.759Z,97659.91
2022-12-22T14:07:31.040Z,97656.34
2022-12-22T14:10:55.496Z,97653.16
2022-12-22T14:14:24.564Z,97649.50
2022-12-22T14:17:52.700Z,97645.41
2022-12-22T14:21:16.436Z,97650.38
2022-12-22T14:24:54.895Z,97647.28
2022-12-22T14:28:27.357Z,97628.53
2022-12-22T14:32:02.684Z,97631.41
2022-12-22T14:35:31.109Z,97636.22
2022-12-22T14:39:05.482Z,97631.50
2022-12-22T14:42:33.385Z,97619.13
2022-12-22T14:46:10.786Z,97625.81
2022-12-22T14:49:35.521Z,97609.78
2022-12-22T14:53:01.839Z,97621.31
2022-12-22T14:56:26.568Z,97619.81
2022-12-22T15:00:10.431Z,97609.59
2022-12-22T15:03:38.002Z,97607.34
2022-12-22T15:07:54.417Z,97602.53
2022-12-22T15:11:02.757Z,97604.50
2022-12-22T15:14:36.705Z,97591.13
2022-12-22T15:18:00.567Z,97612.19
2022-12-22T15:21:23.009Z,97614.41
2022-12-22T15:24:44.907Z,97602.41
2022-12-22T15:28:11.114Z,97609.06
2022-12-22T15:31:34.017Z,97601.41
2022-12-22T15:34:55.951Z,97609.28
2022-12-22T15:38:25.149Z,97612.25
2022-12-22T15:41:47.942Z,97592.38
2022-12-22T15:45:10.469Z,97589.09
2022-12-22T15:48:36.531Z,97585.59
2022-12-22T15:52:03.684Z,97590.00
2022-12-22T15:55:26.847Z,97587.13
2022-12-22T15:58:50.536Z,97580.44
2022-12-22T16:02:14.023Z,97581.69
2022-12-22T16:05:37.158Z,97581.66
2022-12-22T16:09:00.627Z,97580.44
2022-12-22T16:12:23.952Z,97582.69
2022-12-22T16:15:45.894Z,97568.84
2022-12-22T16:19:18.702Z,97571.78
2022-12-22T16:22:42.411Z,97557.59
2022-12-22T16:26:05.734Z,97558.78
2022-12-22T16:29:28.985Z,97550.53
2022-12-22T16:32:52.179Z,97552.19
2022-12-22T16:36:15.506Z,97552.75
2022-12-22T16:39:37.510Z,97551.84
2022-12-22T16:47:05.450Z,97550.69
2022-12-22T16:50:33.390Z,97545.59
2022-12-22T16:53:55.348Z,97533.59
2022-12-22T16:57:17.391Z,97539.50
2022-12-22T17:00:44.090Z,97533.38
2022-12-22T17:04:31.636Z,97530.16
2022-12-22T17:07:58.819Z,97521.34
2022-12-22T17:11:25.016Z,97519.78
2022-12-22T17:14:58.266Z,97513.09
2022-12-22T17:18:24.855Z,97514.88
2022-12-22T17:21:47.973Z,97515.97
2022-12-22T17:25:28.507Z,97508.03
2022-12-22T17:28:59.351Z,97516.50
2022-12-22T17:32:22.403Z,97507.50
2022-12-22T17:35:46.712Z,97516.97
2022-12-22T17:39:19.456Z,97504.34
2022-12-22T17:42:41.436Z,97507.03
2022-12-22T17:46:03.330Z,97508.84
2022-12-22T17:49:25.371Z,97503.50
2022-12-22T17:52:48.281Z,97501.66
2022-12-22T17:56:18.343Z,97495.47
2022-12-22T17:59:41.324Z,97486.44
2022-12-22T18:03:03.490Z,97483.88
2022-12-22T18:06:35.336Z,97490.56
2022-12-22T18:10:00.568Z,97486.44
2022-12-22T18:13:27.014Z,97478.88
2022-12-22T18:16:49.048Z,97469.59
2022-12-22T18:20:21.228Z,97472.81
2022-12-22T18:23:49.883Z,97462.13
2022-12-22T18:27:13.640Z,97459.66
2022-12-22T18:30:36.162Z,97460.84
2022-12-22T18:33:58.212Z,97445.47
2022-12-22T18:37:20.097Z,97446.50
2022-12-22T18:40:47.638Z,97446.22
2022-12-22T18:44:20.358Z,97432.19
2022-12-22T18:47:42.247Z,97426.78
2022-12-22T18:51:14.707Z,97425.19
2022-12-22T18:54:38.008Z,97412.22
2022-12-22T18:58:03.994Z,97412.03
2022-12-22T19:01:27.364Z,97416.69
2022-12-22T19:04:54.971Z,97407.84
2022-12-22T19:08:20.652Z,97390.91
2022-12-22T19:11:44.091Z,97386.50
2022-12-22T19:15:07.465Z,97390.56
2022-12-22T19:18:30.417Z,97378.47
2022-12-22T19:21:53.626Z,97390.28
2022-12-22T19:25:23.494Z,97375.72
2022-12-22T19:28:48.962Z,97367.22
2022-12-22T19:32:26.946Z,97378.84
2022-12-22T19:35:49.029Z,97364.75
2022-12-22T19:39:10.933Z,97352.34
2022-12-22T19:42:32.917Z,97362.06
2022-12-22T19:45:55.671Z,97352.34
2022-12-22T19:49:22.732Z,97365.50
2022-12-22T19:52:45.645Z,97348.72
2022-12-22T19:56:30.950Z,97351.03
2022-12-22T19:59:54.823Z,97324.13
2022-12-22T20:03:25.494Z,97321.00
2022-12-22T20:06:47.523Z,97330.47
2022-12-22T20:10:11.556Z,97326.72
2022-12-22T20:13:47.106Z,97328.13
2022-12-22T20:17:16.477Z,97319.81
2022-12-22T20:20:57.665Z,97314.03
2022-12-22T20:24:31.088Z,97312.38
2022-12-22T20:27:56.842Z,97287.69
2022-12-22T20:31:24.085Z,97287.50
2022-12-22T20:34:46.061Z,97266.72
2022-12-22T20:38:34.637Z,97260.28
2022-12-22T20:42:06.433Z,97266.72
2022-12-22T20:45:40.042Z,97250.31
2022-12-22T20:49:16.056Z,97224.81
2022-12-22T20:52:39.975Z,97219.53
2022-12-22T20:56:02.182Z,97225.81
2022-12-22T20:59:29.938Z,97213.47
2022-12-22T21:03:00.861Z,97201.25
2022-12-22T21:06:29.088Z,97193.44
2022-12-22T21:09:53.106Z,97168.19
2022-12-22T21:13:18.003Z,97176.81
2022-12-22T21:16:42.946Z,97161.00
2022-12-22T21:20:05.807Z,97172.09
2022-12-22T21:23:29.612Z,97159.81
2022-12-22T21:26:55.541Z,97138.72
2022-12-22T21:30:23.196Z,97155.50
2022-12-22T21:33:47.094Z,97143.00
2022-12-22T21:37:42.129Z,97137.28
2022-12-22T21:41:17.357Z,97156.09
2022-12-22T21:44:47.010Z,97156.19
2022-12-22T21:48:20.165Z,97160.66
2022-12-22T21:51:41.946Z,97153.03
2022-12-22T21:55:07.161Z,97145.31
2022-12-22T21:58:29.139Z,97157.56
2022-12-22T22:01:53.397Z,97159.81
2022-12-22T22:05:39.906Z,97176.53
2022-12-22T22:09:09.765Z,97164.72
2022-12-22T22:12:36.637Z,97170.59
2022-12-22T22:16:00.549Z,97161.84
2022-12-22T22:19:22.459Z,97172.47
2022-12-22T22:22:52.283Z,97167.50
2022-12-22T22:26:17.169Z,97156.25
2022-12-22T22:29:40.253Z,97176.06
2022-12-22T22:33:02.080Z,97176.06
2022-12-22T22:36:23.925Z,97155.59
2022-12-22T22:39:55.783Z,97152.19
2022-12-22T22:43:19.758Z,97166.13
2022-12-22T22:46:42.696Z,97179.16
2022-12-22T22:50:06.855Z,97177.16
2022-12-22T22:53:31.939Z,97181.00
2022-12-22T22:57:07.172Z,97184.50
2022-12-22T23:00:29.028Z,97191.13
2022-12-22T23:03:58.087Z,97194.00
2022-12-22T23:07:55.194Z,97195.69
2022-12-22T23:11:19.199Z,97189.16
2022-12-22T23:15:01.819Z,97196.78
2022-12-22T23:18:34.205Z,97195.66
2022-12-22T23:21:56.714Z,97189.16
2022-12-22T23:25:18.521Z,97200.72
2022-12-22T23:28:40.409Z,97201.75
2022-12-22T23:32:02.353Z,97194.53
2022-12-22T23:35:39.077Z,97203.94
2022-12-22T23:39:01.013Z,97202.44
2022-12-22T23:42:22.922Z,97209.88
2022-12-22T23:45:57.768Z,97221.22
2022-12-22T23:49:19.746Z,97227.81
2022-12-22T23:52:49.331Z,97252.13
2022-12-22T23:56:11.700Z,97263.72
2022-12-22T23:59:33.554Z,97270.34
